Time;durP1;ratioP1;P1;durP2;ratioP2;P2;SDS_P1;SDS_P2;PMS_P1;PMS_P2;Temp;Humidity;BMP_temperature;BMP_pressure;BME280_temperature;BME280_humidity;BME280_pressure;Samples;Min_cycle;Max_cycle;Signal;HPM_P1;HPM_P2
2021/06/27 00:01:09;;;;;;;2.60;0.85;;;;;;;;;;4906027;29;20095;-56
2021/06/27 00:03:35;;;;;;;2.20;0.60;;;;;;;;;;4905505;29;20154;-57
2021/06/27 00:06:01;;;;;;;2.85;0.80;;;;;;;;;;4906016;29;20635;-57
2021/06/27 00:08:27;;;;;;;1.95;0.65;;;;;;;;;;4905780;29;20035;-57
2021/06/27 00:10:56;;;;;;;5.00;0.80;;;;;;;;;;4887353;29;20123;-57
2021/06/27 00:13:22;;;;;;;4.38;0.57;;;;;;;;;;4888721;29;20059;-57
2021/06/27 00:15:49;;;;;;;3.47;0.60;;;;;;;;;;4905873;29;20056;-56
2021/06/27 00:18:17;;;;;;;2.15;0.60;;;;;;;;;;4904347;29;20397;-56
2021/06/27 00:20:43;;;;;;;2.15;0.50;;;;;;;;;;4903696;29;20623;-56
2021/06/27 00:23:09;;;;;;;2.30;0.40;;;;;;;;;;4906593;29;20080;-56
2021/06/27 00:25:35;;;;;;;4.45;0.80;;;;;;;;;;4905256;29;20049;-58
2021/06/27 00:28:02;;;;;;;1.92;0.60;;;;;;;;;;4905689;29;20043;-55
2021/06/27 00:30:28;;;;;;;2.17;0.73;;;;;;;;;;4904627;29;20032;-56
2021/06/27 00:32:55;;;;;;;1.75;0.70;;;;;;;;;;4904743;29;20055;-56
2021/06/27 00:35:21;;;;;;;4.30;0.80;;;;;;;;;;4905779;29;20044;-56
2021/06/27 00:37:47;;;;;;;2.35;0.80;;;;;;;;;;4905842;29;20459;-57
2021/06/27 00:40:14;;;;;;;2.83;0.70;;;;;;;;;;4905085;29;20044;-57
2021/06/27 00:42:40;;;;;;;4.68;1.00;;;;;;;;;;4906558;29;20480;-57
2021/06/27 00:45:07;;;;;;;2.03;0.57;;;;;;;;;;4905480;29;20052;-57
2021/06/27 00:47:34;;;;;;;1.45;0.50;;;;;;;;;;4905424;29;20052;-56
2021/06/27 00:50:00;;;;;;;4.57;0.63;;;;;;;;;;4909500;29;20091;-57
2021/06/27 00:52:26;;;;;;;3.15;0.63;;;;;;;;;;4907288;29;20578;-56
2021/06/27 00:54:53;;;;;;;1.90;0.60;;;;;;;;;;4909706;29;20054;-57
2021/06/27 00:57:19;;;;;;;3.03;0.55;;;;;;;;;;4907427;29;20558;-56
2021/06/27 00:59:44;;;;;;;2.03;0.70;;;;;;;;;;4908356;29;20928;-55
2021/06/27 01:02:10;;;;;;;2.65;0.77;;;;;;;;;;4879344;29;20088;-56
2021/06/27 01:04:39;;;;;;;2.40;0.60;;;;;;;;;;4890661;29;20070;-56
2021/06/27 01:07:06;;;;;;;2.28;0.80;;;;;;;;;;4908313;29;20048;-57
2021/06/27 01:09:32;;;;;;;2.60;0.70;;;;;;;;;;4907957;29;20068;-56
2021/06/27 01:11:58;;;;;;;3.05;0.60;;;;;;;;;;4907917;29;20035;-55
2021/06/27 01:14:24;;;;;;;2.83;0.60;;;;;;;;;;4907695;29;20104;-56
2021/06/27 01:16:50;;;;;;;3.05;0.93;;;;;;;;;;4909571;29;20052;-57
2021/06/27 01:19:16;;;;;;;2.45;0.70;;;;;;;;;;4908886;29;20123;-55
2021/06/27 01:21:42;;;;;;;3.55;0.73;;;;;;;;;;4906896;29;20115;-55
2021/06/27 01:24:08;;;;;;;1.67;0.45;;;;;;;;;;4908371;29;20036;-57
2021/06/27 01:26:34;;;;;;;3.50;0.70;;;;;;;;;;4908121;29;20406;-57
2021/06/27 01:29:00;;;;;;;1.92;0.65;;;;;;;;;;4910015;29;20552;-56
2021/06/27 01:31:27;;;;;;;3.17;0.70;;;;;;;;;;4908665;29;20043;-54
2021/06/27 01:33:53;;;;;;;3.10;0.90;;;;;;;;;;4908156;29;20043;-56
2021/06/27 01:36:20;;;;;;;2.70;0.55;;;;;;;;;;4908228;29;20043;-56
2021/06/27 01:38:46;;;;;;;6.32;0.90;;;;;;;;;;4908495;29;20040;-55
2021/06/27 01:41:11;;;;;;;2.45;0.70;;;;;;;;;;4908356;29;20485;-56
2021/06/27 01:43:37;;;;;;;4.22;0.80;;;;;;;;;;4908840;29;20198;-56
2021/06/27 01:46:03;;;;;;;2.83;0.85;;;;;;;;;;4908759;29;20048;-56
2021/06/27 01:48:30;;;;;;;3.00;0.90;;;;;;;;;;4898428;29;20091;-56
2021/06/27 01:50:56;;;;;;;1.85;0.68;;;;;;;;;;4909589;29;20165;-55
2021/06/27 01:53:24;;;;;;;2.67;0.65;;;;;;;;;;4908687;29;20123;-56
2021/06/27 01:56:04;;;;;;;2.42;0.70;;;;;;;;;;4910089;29;20046;-56
2021/06/27 01:58:31;;;;;;;6.40;0.80;;;;;;;;;;4910411;29;20044;-56
2021/06/27 02:00:56;;;;;;;3.28;0.80;;;;;;;;;;4890415;29;20070;-57
2021/06/27 02:03:22;;;;;;;5.15;0.80;;;;;;;;;;4907618;29;21834;-56
2021/06/27 02:05:48;;;;;;;1.65;0.50;;;;;;;;;;4910251;29;20052;-56
2021/06/27 02:08:14;;;;;;;3.60;0.70;;;;;;;;;;4908916;29;21108;-55
2021/06/27 02:10:40;;;;;;;3.53;0.60;;;;;;;;;;4906280;29;20094;-56
2021/06/27 02:13:05;;;;;;;8.05;1.63;;;;;;;;;;4906751;29;20044;-57
2021/06/27 02:15:31;;;;;;;5.10;1.75;;;;;;;;;;4907217;29;20160;-58
2021/06/27 02:18:00;;;;;;;3.90;0.80;;;;;;;;;;4907425;29;21017;-57
2021/06/27 02:20:26;;;;;;;6.80;3.30;;;;;;;;;;4906878;29;20044;-57
2021/06/27 02:22:53;;;;;;;2.42;0.75;;;;;;;;;;4908551;29;20052;-56
2021/06/27 02:25:18;;;;;;;3.47;0.70;;;;;;;;;;4906662;29;20033;-55
2021/06/27 02:27:44;;;;;;;2.20;0.70;;;;;;;;;;4907908;29;20054;-56
2021/06/27 02:30:11;;;;;;;3.15;0.70;;;;;;;;;;4907505;29;20488;-55
2021/06/27 02:32:36;;;;;;;1.90;0.80;;;;;;;;;;4907177;29;20047;-55
2021/06/27 02:35:03;;;;;;;2.58;0.70;;;;;;;;;;4907994;29;20075;-57
2021/06/27 02:37:29;;;;;;;25.48;2.33;;;;;;;;;;4905617;29;20036;-54
2021/06/27 02:39:55;;;;;;;2.15;0.70;;;;;;;;;;4906731;29;20379;-55
2021/06/27 02:42:20;;;;;;;5.85;0.80;;;;;;;;;;4905281;29;20044;-58
2021/06/27 02:44:46;;;;;;;1.90;0.60;;;;;;;;;;4908222;29;20063;-56
2021/06/27 02:47:16;;;;;;;3.83;0.80;;;;;;;;;;4890202;29;20833;-55
2021/06/27 02:49:42;;;;;;;5.10;0.90;;;;;;;;;;4906663;29;20091;-55
2021/06/27 02:52:08;;;;;;;1.88;0.50;;;;;;;;;;4905074;29;20044;-55
2021/06/27 02:54:34;;;;;;;2.85;0.60;;;;;;;;;;4905065;29;20056;-55
2021/06/27 02:56:59;;;;;;;4.00;0.77;;;;;;;;;;4906942;29;20128;-55
2021/06/27 02:59:25;;;;;;;2.97;0.77;;;;;;;;;;4906394;29;22123;-53
2021/06/27 03:01:51;;;;;;;2.05;0.80;;;;;;;;;;4904861;29;20053;-56
2021/06/27 03:04:17;;;;;;;3.50;0.70;;;;;;;;;;4906587;29;21080;-56
2021/06/27 03:06:43;;;;;;;6.70;1.05;;;;;;;;;;4906104;29;20039;-56
2021/06/27 03:09:08;;;;;;;4.75;0.80;;;;;;;;;;4905638;29;20040;-55
2021/06/27 03:11:35;;;;;;;4.93;0.70;;;;;;;;;;4905872;29;20059;-56
2021/06/27 03:14:01;;;;;;;6.22;1.20;;;;;;;;;;4906711;29;20400;-56
2021/06/27 03:16:27;;;;;;;2.53;0.73;;;;;;;;;;4904850;29;20048;-57
2021/06/27 03:18:52;;;;;;;4.13;1.13;;;;;;;;;;4897199;29;20055;-55
2021/06/27 03:21:18;;;;;;;4.65;0.82;;;;;;;;;;4903343;29;20090;-57
2021/06/27 03:23:44;;;;;;;3.42;0.88;;;;;;;;;;4906198;29;20564;-56
2021/06/27 03:26:10;;;;;;;2.80;0.95;;;;;;;;;;4905952;29;20495;-57
2021/06/27 03:28:38;;;;;;;5.13;1.05;;;;;;;;;;4905513;29;20040;-55
2021/06/27 03:31:04;;;;;;;4.20;0.82;;;;;;;;;;4905666;29;20072;-57
2021/06/27 03:33:29;;;;;;;4.32;1.00;;;;;;;;;;4887937;29;20127;-55
2021/06/27 03:35:55;;;;;;;6.55;1.08;;;;;;;;;;4907010;29;20048;-56
2021/06/27 03:38:27;;;;;;;7.57;1.92;;;;;;;;;;4907219;29;20052;-56
2021/06/27 03:40:53;;;;;;;3.88;1.08;;;;;;;;;;4907512;29;20051;-57
2021/06/27 03:43:19;;;;;;;7.43;1.20;;;;;;;;;;4907554;29;20680;-57
2021/06/27 03:45:45;;;;;;;4.50;1.02;;;;;;;;;;4906930;29;20115;-56
2021/06/27 03:48:10;;;;;;;2.40;0.73;;;;;;;;;;4905763;29;20032;-57
2021/06/27 03:50:36;;;;;;;3.30;0.80;;;;;;;;;;4904583;29;20059;-56
2021/06/27 03:53:02;;;;;;;2.85;0.90;;;;;;;;;;4877926;29;20419;-55
2021/06/27 03:55:31;;;;;;;3.00;0.75;;;;;;;;;;4906653;29;20714;-56
2021/06/27 03:57:57;;;;;;;6.55;0.90;;;;;;;;;;4889557;29;20569;-56
2021/06/27 04:00:23;;;;;;;2.45;0.73;;;;;;;;;;4904085;29;20048;-56
2021/06/27 04:02:48;;;;;;;4.80;1.10;;;;;;;;;;4905760;29;20062;-54
2021/06/27 04:05:14;;;;;;;4.82;1.42;;;;;;;;;;4904994;29;20048;-55
2021/06/27 04:07:40;;;;;;;12.63;2.05;;;;;;;;;;4904944;29;20363;-55
2021/06/27 04:10:06;;;;;;;3.28;1.40;;;;;;;;;;4904409;29;20032;-56
2021/06/27 04:12:32;;;;;;;7.88;2.20;;;;;;;;;;4903109;29;20067;-56
2021/06/27 04:14:58;;;;;;;4.80;1.63;;;;;;;;;;4904068;29;20206;-57
2021/06/27 04:17:24;;;;;;;4.30;1.83;;;;;;;;;;4903916;29;20383;-52
2021/06/27 04:19:50;;;;;;;5.38;1.63;;;;;;;;;;4905227;29;20473;-55
2021/06/27 04:22:16;;;;;;;5.68;1.83;;;;;;;;;;4904250;29;20059;-55
2021/06/27 04:24:42;;;;;;;5.97;1.50;;;;;;;;;;4908510;29;20048;-55
2021/06/27 04:27:08;;;;;;;6.82;1.83;;;;;;;;;;4907820;29;20091;-55
2021/06/27 04:29:34;;;;;;;4.72;1.63;;;;;;;;;;4908589;29;20047;-54
2021/06/27 04:32:00;;;;;;;6.22;1.45;;;;;;;;;;4908228;29;20074;-55
2021/06/27 04:34:26;;;;;;;4.15;1.50;;;;;;;;;;4906775;29;20051;-56
2021/06/27 04:36:52;;;;;;;3.92;1.70;;;;;;;;;;4908938;29;20055;-56
2021/06/27 04:39:18;;;;;;;7.00;2.10;;;;;;;;;;4909334;29;20036;-55
2021/06/27 04:41:47;;;;;;;7.43;2.03;;;;;;;;;;4902261;29;20438;-55
2021/06/27 04:44:13;;;;;;;6.80;2.47;;;;;;;;;;4906583;29;20150;-56
2021/06/27 04:46:39;;;;;;;4.65;1.70;;;;;;;;;;4904818;29;20048;-54
2021/06/27 04:49:06;;;;;;;7.10;2.20;;;;;;;;;;4904396;29;20914;-57
2021/06/27 04:51:32;;;;;;;4.95;1.70;;;;;;;;;;4903013;29;20494;-57
2021/06/27 04:53:58;;;;;;;7.30;1.77;;;;;;;;;;4904506;29;20047;-55
2021/06/27 04:56:24;;;;;;;6.65;1.90;;;;;;;;;;4903260;29;20050;-56
2021/06/27 04:58:50;;;;;;;6.05;1.83;;;;;;;;;;4905823;29;20754;-57
2021/06/27 05:01:15;;;;;;;5.10;1.88;;;;;;;;;;4904852;29;20120;-56
2021/06/27 05:03:41;;;;;;;6.63;1.83;;;;;;;;;;4906949;29;20048;-55
2021/06/27 05:06:07;;;;;;;3.83;1.58;;;;;;;;;;4906629;29;20139;-53
2021/06/27 05:08:33;;;;;;;6.38;1.48;;;;;;;;;;4904415;29;20092;-56
2021/06/27 05:10:59;;;;;;;4.70;1.30;;;;;;;;;;4905536;29;20082;-54
2021/06/27 05:13:25;;;;;;;3.17;1.23;;;;;;;;;;4906244;29;20103;-55
2021/06/27 05:15:51;;;;;;;5.75;1.65;;;;;;;;;;4906512;29;20052;-54
2021/06/27 05:18:17;;;;;;;7.38;1.75;;;;;;;;;;4907465;29;20040;-53
2021/06/27 05:20:43;;;;;;;13.50;2.28;;;;;;;;;;4887745;29;20047;-55
2021/06/27 05:23:09;;;;;;;12.52;3.35;;;;;;;;;;4906348;29;20912;-57
2021/06/27 05:25:35;;;;;;;12.55;2.55;;;;;;;;;;4904404;29;20167;-53
2021/06/27 05:28:00;;;;;;;8.00;2.00;;;;;;;;;;4906844;29;20032;-57
2021/06/27 05:30:27;;;;;;;6.38;2.38;;;;;;;;;;4906481;29;20040;-56
2021/06/27 05:32:53;;;;;;;9.95;2.50;;;;;;;;;;4907877;29;20044;-56
2021/06/27 05:35:19;;;;;;;9.15;2.67;;;;;;;;;;4907608;29;20036;-56
2021/06/27 05:37:45;;;;;;;8.90;3.70;;;;;;;;;;4907101;29;20039;-56
2021/06/27 05:40:12;;;;;;;9.20;4.45;;;;;;;;;;4906535;29;20048;-56
2021/06/27 05:42:38;;;;;;;9.63;3.55;;;;;;;;;;4907459;29;20083;-56
2021/06/27 05:45:04;;;;;;;12.13;3.50;;;;;;;;;;4907293;29;20047;-55
2021/06/27 05:47:30;;;;;;;13.23;4.32;;;;;;;;;;4907285;29;20513;-55
2021/06/27 05:49:56;;;;;;;9.32;3.28;;;;;;;;;;4908125;29;20039;-56
2021/06/27 05:52:22;;;;;;;7.93;4.07;;;;;;;;;;4907441;29;20036;-54
2021/06/27 05:54:47;;;;;;;13.07;3.58;;;;;;;;;;4894542;29;20043;-55
2021/06/27 05:57:13;;;;;;;6.53;2.85;;;;;;;;;;4906134;29;22730;-56
2021/06/27 05:59:39;;;;;;;9.45;2.92;;;;;;;;;;4907212;29;20039;-56
2021/06/27 06:02:05;;;;;;;8.50;2.47;;;;;;;;;;4906701;29;20062;-53
2021/06/27 06:04:31;;;;;;;6.30;2.47;;;;;;;;;;4907173;29;20040;-55
2021/06/27 06:06:57;;;;;;;9.85;2.65;;;;;;;;;;4905789;29;20115;-55
2021/06/27 06:09:23;;;;;;;8.05;1.98;;;;;;;;;;4906552;29;20076;-57
2021/06/27 06:11:49;;;;;;;5.38;1.70;;;;;;;;;;4889891;29;20547;-56
2021/06/27 06:14:15;;;;;;;7.05;2.10;;;;;;;;;;4905915;29;20167;-57
2021/06/27 06:16:45;;;;;;;4.97;1.92;;;;;;;;;;4906425;29;20079;-55
2021/06/27 06:19:11;;;;;;;7.10;1.83;;;;;;;;;;4907675;29;20047;-56
2021/06/27 06:21:37;;;;;;;3.60;1.40;;;;;;;;;;4905089;29;20067;-56
2021/06/27 06:24:03;;;;;;;5.60;1.67;;;;;;;;;;4906958;29;20223;-55
2021/06/27 06:26:29;;;;;;;6.57;1.55;;;;;;;;;;4906190;29;20046;-56
2021/06/27 06:28:54;;;;;;;5.10;1.50;;;;;;;;;;4907403;29;20040;-55
2021/06/27 06:31:20;;;;;;;4.68;1.67;;;;;;;;;;4905136;29;20041;-53
2021/06/27 06:33:46;;;;;;;4.60;1.55;;;;;;;;;;4907143;29;20074;-56
2021/06/27 06:36:12;;;;;;;6.18;1.67;;;;;;;;;;4908024;29;20043;-56
2021/06/27 06:38:38;;;;;;;7.53;1.92;;;;;;;;;;4905999;29;22552;-57
2021/06/27 06:41:03;;;;;;;6.90;1.52;;;;;;;;;;4887903;29;20052;-57
2021/06/27 06:43:29;;;;;;;8.73;1.88;;;;;;;;;;4904963;29;20044;-56
2021/06/27 06:45:55;;;;;;;6.35;1.80;;;;;;;;;;4905272;29;20047;-56
2021/06/27 06:48:21;;;;;;;6.82;1.75;;;;;;;;;;4905386;29;20043;-56
2021/06/27 06:50:47;;;;;;;4.13;1.50;;;;;;;;;;4905582;29;20043;-56
2021/06/27 06:53:13;;;;;;;4.05;1.42;;;;;;;;;;4907470;29;20039;-54
2021/06/27 06:55:38;;;;;;;6.72;2.25;;;;;;;;;;4903705;29;20379;-56
2021/06/27 06:58:05;;;;;;;4.15;1.60;;;;;;;;;;4906137;29;20028;-56
2021/06/27 07:00:31;;;;;;;7.38;1.65;;;;;;;;;;4905287;29;20079;-54
2021/06/27 07:02:56;;;;;;;5.05;1.70;;;;;;;;;;4905047;29;20198;-56
2021/06/27 07:05:22;;;;;;;6.63;1.70;;;;;;;;;;4904984;29;20234;-53
2021/06/27 07:07:48;;;;;;;4.05;1.48;;;;;;;;;;4905621;29;20043;-56
2021/06/27 07:10:14;;;;;;;5.30;1.60;;;;;;;;;;4905447;29;20032;-53
2021/06/27 07:12:40;;;;;;;3.22;1.33;;;;;;;;;;4905922;29;20590;-55
2021/06/27 07:15:06;;;;;;;4.32;1.58;;;;;;;;;;4905349;29;20421;-53
2021/06/27 07:17:32;;;;;;;3.97;1.35;;;;;;;;;;4904875;29;20092;-53
2021/06/27 07:19:58;;;;;;;7.85;1.65;;;;;;;;;;4889584;29;20640;-55
2021/06/27 07:22:24;;;;;;;6.15;1.27;;;;;;;;;;4905288;29;20143;-53
2021/06/27 07:24:50;;;;;;;5.25;1.48;;;;;;;;;;4905698;29;20051;-56
2021/06/27 07:27:15;;;;;;;6.65;1.77;;;;;;;;;;4888624;29;20977;-56
2021/06/27 07:29:41;;;;;;;4.65;1.23;;;;;;;;;;4904552;29;20073;-55
2021/06/27 07:32:07;;;;;;;6.15;1.30;;;;;;;;;;4887308;29;20073;-55
2021/06/27 07:34:33;;;;;;;4.97;1.30;;;;;;;;;;4904923;29;20040;-55
2021/06/27 07:37:00;;;;;;;5.00;1.60;;;;;;;;;;4905057;29;20066;-55
2021/06/27 07:39:25;;;;;;;3.53;1.25;;;;;;;;;;4904709;29;20091;-53
2021/06/27 07:41:51;;;;;;;4.57;1.23;;;;;;;;;;4904615;29;20450;-55
2021/06/27 07:44:17;;;;;;;7.93;1.63;;;;;;;;;;4904877;29;20173;-56
2021/06/27 07:46:43;;;;;;;4.40;1.23;;;;;;;;;;4904274;29;20043;-54
2021/06/27 07:49:09;;;;;;;4.70;1.42;;;;;;;;;;4905013;29;20131;-55
2021/06/27 07:51:34;;;;;;;6.15;1.50;;;;;;;;;;4903872;29;20052;-56
2021/06/27 07:54:00;;;;;;;5.20;1.15;;;;;;;;;;4904505;29;20044;-55
2021/06/27 07:56:26;;;;;;;3.58;0.90;;;;;;;;;;4904384;29;20054;-55
2021/06/27 07:58:52;;;;;;;5.43;1.25;;;;;;;;;;4903122;29;20561;-55
2021/06/27 08:01:18;;;;;;;4.90;1.25;;;;;;;;;;4904725;29;20517;-55
2021/06/27 08:03:44;;;;;;;3.70;1.42;;;;;;;;;;4904724;29;20382;-55
2021/06/27 08:06:09;;;;;;;3.63;1.13;;;;;;;;;;4905777;29;20044;-56
2021/06/27 08:08:35;;;;;;;5.95;1.50;;;;;;;;;;4904330;29;20048;-53
2021/06/27 08:11:01;;;;;;;4.72;1.20;;;;;;;;;;4904598;29;20062;-56
2021/06/27 08:13:27;;;;;;;4.80;1.20;;;;;;;;;;4904294;29;20893;-55
2021/06/27 08:15:57;;;;;;;6.85;1.20;;;;;;;;;;4903868;29;20044;-55
2021/06/27 08:18:23;;;;;;;7.45;1.10;;;;;;;;;;4904279;29;20058;-55
2021/06/27 08:20:48;;;;;;;3.25;1.00;;;;;;;;;;4904180;29;20044;-55
2021/06/27 08:23:14;;;;;;;5.47;1.10;;;;;;;;;;4904160;29;20071;-55
2021/06/27 08:25:40;;;;;;;3.30;1.10;;;;;;;;;;4904690;29;20266;-55
2021/06/27 08:28:06;;;;;;;3.58;1.25;;;;;;;;;;4905151;29;20592;-55
2021/06/27 08:30:32;;;;;;;2.88;0.93;;;;;;;;;;4904403;29;20035;-55
2021/06/27 08:32:57;;;;;;;3.17;0.90;;;;;;;;;;4904473;29;20123;-56
2021/06/27 08:35:23;;;;;;;3.42;1.00;;;;;;;;;;4903989;29;20040;-55
2021/06/27 08:37:52;;;;;;;3.20;0.93;;;;;;;;;;4875438;29;20055;-56
2021/06/27 08:40:19;;;;;;;8.80;1.10;;;;;;;;;;4903426;29;20138;-56
2021/06/27 08:42:45;;;;;;;3.42;1.08;;;;;;;;;;4904230;29;20048;-55
2021/06/27 08:45:12;;;;;;;6.65;1.25;;;;;;;;;;4905530;29;20047;-56
2021/06/27 08:47:38;;;;;;;3.22;1.10;;;;;;;;;;4904549;29;20039;-54
2021/06/27 08:50:06;;;;;;;4.88;1.05;;;;;;;;;;4903896;29;20046;-53
2021/06/27 08:52:33;;;;;;;6.57;1.13;;;;;;;;;;4904481;29;20050;-53
2021/06/27 08:54:59;;;;;;;6.72;1.08;;;;;;;;;;4904080;29;20047;-56
2021/06/27 08:57:25;;;;;;;3.85;1.15;;;;;;;;;;4903247;29;20040;-56
2021/06/27 08:59:52;;;;;;;5.13;1.50;;;;;;;;;;4905199;29;20051;-56
2021/06/27 09:02:18;;;;;;;4.30;1.10;;;;;;;;;;4904434;29;20143;-56
2021/06/27 09:04:44;;;;;;;2.95;0.77;;;;;;;;;;4904950;29;20044;-54
2021/06/27 09:07:29;;;;;;;3.70;0.95;;;;;;;;;;4875142;29;20048;-56
2021/06/27 09:10:15;;;;;;;6.38;1.08;;;;;;;;;;4906402;29;20039;-55
2021/06/27 09:12:45;;;;;;;3.58;1.00;;;;;;;;;;4903967;29;21031;-55
2021/06/27 09:15:12;;;;;;;4.65;1.20;;;;;;;;;;4909498;29;20055;-56
2021/06/27 09:17:42;;;;;;;2.65;0.90;;;;;;;;;;4906512;29;20540;-56
2021/06/27 09:20:09;;;;;;;5.78;1.27;;;;;;;;;;4907017;29;20040;-56
2021/06/27 09:22:40;;;;;;;4.20;0.90;;;;;;;;;;4906707;29;20084;-55
2021/06/27 09:25:17;;;;;;;2.30;0.70;;;;;;;;;;4906840;29;20032;-55
2021/06/27 09:27:43;;;;;;;3.75;1.00;;;;;;;;;;4907202;29;20147;-56
2021/06/27 09:30:15;;;;;;;4.82;1.27;;;;;;;;;;4907126;29;20040;-56
2021/06/27 09:33:02;;;;;;;2.95;1.15;;;;;;;;;;4907723;29;20513;-56
2021/06/27 09:35:35;;;;;;;3.60;1.05;;;;;;;;;;4907082;29;20729;-52
2021/06/27 09:38:19;;;;;;;3.75;1.00;;;;;;;;;;4907245;29;20043;-52
2021/06/27 09:40:46;;;;;;;5.57;1.10;;;;;;;;;;4906586;29;20043;-55
2021/06/27 09:43:11;;;;;;;3.65;1.10;;;;;;;;;;4907607;29;20056;-54
2021/06/27 09:45:57;;;;;;;5.90;0.95;;;;;;;;;;4905401;29;20124;-56
2021/06/27 09:48:24;;;;;;;3.33;1.13;;;;;;;;;;4906140;29;20058;-56
2021/06/27 09:50:50;;;;;;;4.32;1.10;;;;;;;;;;4907106;29;20044;-55
2021/06/27 09:53:35;;;;;;;7.30;1.30;;;;;;;;;;4905994;29;20505;-55
2021/06/27 09:56:01;;;;;;;4.25;0.90;;;;;;;;;;4906202;29;20126;-55
2021/06/27 09:58:27;;;;;;;5.95;1.15;;;;;;;;;;4905844;29;20035;-54
2021/06/27 10:00:53;;;;;;;3.55;0.90;;;;;;;;;;4906973;29;22083;-54
2021/06/27 10:03:19;;;;;;;2.90;0.90;;;;;;;;;;4905714;29;20401;-55
2021/06/27 10:05:45;;;;;;;3.05;1.00;;;;;;;;;;4906453;29;20109;-55
2021/06/27 10:08:29;;;;;;;4.55;1.00;;;;;;;;;;4906225;29;20111;-55
2021/06/27 10:11:06;;;;;;;3.08;1.10;;;;;;;;;;4906642;29;20035;-53
2021/06/27 10:13:32;;;;;;;4.30;0.90;;;;;;;;;;4906769;29;20043;-52
2021/06/27 10:15:59;;;;;;;6.68;0.90;;;;;;;;;;4907125;29;20097;-56
2021/06/27 10:18:25;;;;;;;5.93;1.20;;;;;;;;;;4907776;29;20597;-56
2021/06/27 10:20:51;;;;;;;2.80;1.00;;;;;;;;;;4906343;29;20816;-56
2021/06/27 10:23:17;;;;;;;3.33;1.20;;;;;;;;;;4906625;29;20120;-56
2021/06/27 10:25:43;;;;;;;2.67;0.93;;;;;;;;;;4908184;29;20059;-56
2021/06/27 10:28:09;;;;;;;4.10;1.00;;;;;;;;;;4908139;29;20735;-53
2021/06/27 10:30:35;;;;;;;3.13;1.10;;;;;;;;;;4906566;29;20618;-55
2021/06/27 10:33:01;;;;;;;3.05;0.95;;;;;;;;;;4908632;29;20167;-54
2021/06/27 10:35:27;;;;;;;8.13;1.17;;;;;;;;;;4905266;29;20135;-56
2021/06/27 10:37:54;;;;;;;5.82;1.20;;;;;;;;;;4905614;29;20096;-55
2021/06/27 10:40:20;;;;;;;5.93;1.10;;;;;;;;;;4905837;29;20179;-56
2021/06/27 10:42:49;;;;;;;8.07;1.20;;;;;;;;;;4907997;29;20412;-54
2021/06/27 10:45:19;;;;;;;3.15;0.90;;;;;;;;;;4908388;29;20095;-56
2021/06/27 10:47:44;;;;;;;6.10;1.10;;;;;;;;;;4906314;29;20044;-56
2021/06/27 10:50:11;;;;;;;2.83;0.98;;;;;;;;;;4908408;29;20511;-54
2021/06/27 10:52:55;;;;;;;7.50;1.30;;;;;;;;;;4907348;29;20040;-55
2021/06/27 10:55:26;;;;;;;3.85;1.30;;;;;;;;;;4909094;29;20047;-53
2021/06/27 10:57:59;;;;;;;3.35;0.80;;;;;;;;;;4907270;29;20167;-56
2021/06/27 11:00:26;;;;;;;5.47;0.95;;;;;;;;;;4906887;29;20047;-55
2021/06/27 11:02:53;;;;;;;4.78;0.98;;;;;;;;;;4907853;29;20055;-56
2021/06/27 11:05:28;;;;;;;5.07;1.10;;;;;;;;;;4907953;29;20048;-56
2021/06/27 11:07:55;;;;;;;5.78;1.00;;;;;;;;;;4906789;29;20116;-55
2021/06/27 11:10:20;;;;;;;3.78;1.00;;;;;;;;;;4905082;29;20040;-53
2021/06/27 11:13:05;;;;;;;4.10;0.93;;;;;;;;;;4907208;29;20103;-56
2021/06/27 11:15:33;;;;;;;5.55;1.10;;;;;;;;;;4905730;29;20063;-54
2021/06/27 11:18:03;;;;;;;3.33;0.95;;;;;;;;;;4906430;29;20492;-56
2021/06/27 11:20:30;;;;;;;2.47;0.73;;;;;;;;;;4904655;29;20044;-52
2021/06/27 11:22:59;;;;;;;2.70;0.80;;;;;;;;;;4905739;29;20060;-56
2021/06/27 11:25:41;;;;;;;2.83;1.00;;;;;;;;;;4906513;29;20039;-54
2021/06/27 11:28:19;;;;;;;4.00;0.90;;;;;;;;;;4905284;29;20102;-54
2021/06/27 11:30:51;;;;;;;2.75;1.10;;;;;;;;;;4906342;29;20040;-55
2021/06/27 11:33:22;;;;;;;2.90;0.85;;;;;;;;;;4906772;29;20048;-56
2021/06/27 11:35:57;;;;;;;2.30;0.75;;;;;;;;;;4905106;29;20040;-54
2021/06/27 11:38:38;;;;;;;2.58;0.90;;;;;;;;;;4906002;29;20135;-56
2021/06/27 11:41:05;;;;;;;2.17;0.93;;;;;;;;;;4905600;29;20047;-56
2021/06/27 11:43:49;;;;;;;3.75;0.88;;;;;;;;;;4906066;29;20032;-55
2021/06/27 11:46:32;;;;;;;6.43;1.17;;;;;;;;;;4906135;29;20135;-55
2021/06/27 11:49:16;;;;;;;3.30;0.90;;;;;;;;;;4903853;29;20106;-53
2021/06/27 11:51:44;;;;;;;4.78;1.00;;;;;;;;;;4904262;29;20104;-56
2021/06/27 11:54:11;;;;;;;2.60;0.93;;;;;;;;;;4906505;29;20052;-55
2021/06/27 11:56:56;;;;;;;2.63;0.77;;;;;;;;;;4904153;29;20091;-56
2021/06/27 11:59:26;;;;;;;3.90;0.80;;;;;;;;;;4903888;29;20051;-56
2021/06/27 12:02:10;;;;;;;2.80;0.93;;;;;;;;;;4905406;29;20099;-55
2021/06/27 12:04:37;;;;;;;4.25;1.08;;;;;;;;;;4905566;29;20167;-57
2021/06/27 12:07:03;;;;;;;3.05;1.08;;;;;;;;;;4904787;29;20119;-53
2021/06/27 12:09:38;;;;;;;2.65;0.70;;;;;;;;;;4905357;29;20044;-55
2021/06/27 12:12:03;;;;;;;3.20;1.00;;;;;;;;;;4906036;29;20055;-54
2021/06/27 12:14:39;;;;;;;3.22;0.88;;;;;;;;;;4905546;29;20085;-56
2021/06/27 12:17:22;;;;;;;2.50;0.77;;;;;;;;;;4906606;29;20055;-54
2021/06/27 12:19:51;;;;;;;2.92;0.80;;;;;;;;;;4907036;29;20047;-55
2021/06/27 12:22:17;;;;;;;2.97;0.85;;;;;;;;;;4889217;29;20577;-57
2021/06/27 12:24:43;;;;;;;3.72;0.88;;;;;;;;;;4905310;29;20044;-54
2021/06/27 12:27:10;;;;;;;2.42;0.75;;;;;;;;;;4905699;29;20048;-54
2021/06/27 12:29:35;;;;;;;3.78;1.00;;;;;;;;;;4905009;29;20050;-54
2021/06/27 12:32:05;;;;;;;2.95;0.85;;;;;;;;;;4907646;29;20044;-55
2021/06/27 12:34:31;;;;;;;7.30;1.08;;;;;;;;;;4904078;29;20063;-55
2021/06/27 12:36:57;;;;;;;4.35;0.85;;;;;;;;;;4905767;29;20040;-56
2021/06/27 12:39:25;;;;;;;6.82;1.00;;;;;;;;;;4904152;29;20052;-56
2021/06/27 12:42:06;;;;;;;3.65;0.90;;;;;;;;;;4905435;29;20576;-56
2021/06/27 12:44:32;;;;;;;2.95;1.00;;;;;;;;;;4905553;29;20048;-55
2021/06/27 12:46:58;;;;;;;4.47;0.90;;;;;;;;;;4909564;29;20048;-55
2021/06/27 12:49:27;;;;;;;3.13;0.95;;;;;;;;;;4907005;29;20083;-53
2021/06/27 12:51:56;;;;;;;5.03;1.48;;;;;;;;;;4909899;29;20066;-55
2021/06/27 12:54:22;;;;;;;3.00;1.00;;;;;;;;;;4907408;29;20043;-55
2021/06/27 12:56:51;;;;;;;3.85;0.88;;;;;;;;;;4908594;29;20089;-55
2021/06/27 12:59:41;;;;;;;3.30;1.08;;;;;;;;;;4907806;29;20074;-56
2021/06/27 13:02:17;;;;;;;2.58;0.77;;;;;;;;;;4907277;29;20044;-56
2021/06/27 13:04:46;;;;;;;3.15;0.80;;;;;;;;;;4908969;29;20051;-55
2021/06/27 13:07:12;;;;;;;2.78;0.80;;;;;;;;;;4907518;29;20088;-55
2021/06/27 13:09:42;;;;;;;8.18;1.02;;;;;;;;;;4908617;29;21235;-55
2021/06/27 13:12:09;;;;;;;3.25;0.88;;;;;;;;;;4909450;29;20127;-56
2021/06/27 13:14:36;;;;;;;3.00;1.00;;;;;;;;;;4907724;29;20501;-56
2021/06/27 13:17:03;;;;;;;2.80;1.02;;;;;;;;;;4907159;29;20048;-55
2021/06/27 13:19:28;;;;;;;7.18;0.90;;;;;;;;;;4909456;29;20083;-55
2021/06/27 13:22:07;;;;;;;3.03;0.90;;;;;;;;;;4908474;29;20130;-56
2021/06/27 13:24:53;;;;;;;2.85;0.90;;;;;;;;;;4891038;29;20044;-52
2021/06/27 13:27:19;;;;;;;2.75;0.82;;;;;;;;;;4890228;29;20917;-55
2021/06/27 13:30:02;;;;;;;3.53;1.20;;;;;;;;;;4907728;29;20131;-55
2021/06/27 13:32:27;;;;;;;2.53;0.70;;;;;;;;;;4908003;29;20043;-54
2021/06/27 13:34:53;;;;;;;2.42;0.80;;;;;;;;;;4908737;29;20047;-55
2021/06/27 13:37:19;;;;;;;3.15;1.00;;;;;;;;;;4909770;29;20046;-55
2021/06/27 13:39:48;;;;;;;2.83;0.80;;;;;;;;;;4909583;29;20071;-56
2021/06/27 13:42:14;;;;;;;2.67;0.80;;;;;;;;;;4910189;29;20060;-55
2021/06/27 13:44:59;;;;;;;2.55;0.90;;;;;;;;;;4907884;29;20079;-56
2021/06/27 13:47:25;;;;;;;6.28;0.98;;;;;;;;;;4906670;29;20172;-57
2021/06/27 13:49:51;;;;;;;2.53;0.85;;;;;;;;;;4908245;29;20508;-57
2021/06/27 13:52:16;;;;;;;3.30;1.00;;;;;;;;;;4908723;29;20040;-53
2021/06/27 13:54:42;;;;;;;3.75;1.20;;;;;;;;;;4908016;29;20055;-55
2021/06/27 13:57:08;;;;;;;3.83;0.98;;;;;;;;;;4908015;29;20566;-55
2021/06/27 13:59:34;;;;;;;2.80;0.93;;;;;;;;;;4908269;29;20063;-57
2021/06/27 14:01:59;;;;;;;2.72;0.90;;;;;;;;;;4908659;29;20151;-57
2021/06/27 14:04:25;;;;;;;4.45;1.00;;;;;;;;;;4907664;29;20041;-57
2021/06/27 14:06:51;;;;;;;5.70;1.00;;;;;;;;;;4906893;29;20052;-56
2021/06/27 14:09:19;;;;;;;3.58;1.10;;;;;;;;;;4908336;29;20036;-56
2021/06/27 14:11:45;;;;;;;3.13;0.90;;;;;;;;;;4909051;29;20130;-53
2021/06/27 14:14:11;;;;;;;3.40;0.90;;;;;;;;;;4907692;29;20051;-56
2021/06/27 14:16:37;;;;;;;2.88;1.10;;;;;;;;;;4905980;29;20138;-56
2021/06/27 14:19:03;;;;;;;3.55;0.90;;;;;;;;;;4907467;29;20048;-56
2021/06/27 14:21:30;;;;;;;2.85;1.00;;;;;;;;;;4906322;29;20052;-57
2021/06/27 14:23:58;;;;;;;4.60;0.88;;;;;;;;;;4890564;29;20040;-54
2021/06/27 14:26:24;;;;;;;3.78;0.88;;;;;;;;;;4892144;29;20047;-57
2021/06/27 14:28:50;;;;;;;3.38;1.10;;;;;;;;;;4908331;29;20044;-58
2021/06/27 14:31:16;;;;;;;2.40;0.90;;;;;;;;;;4907373;29;20051;-58
2021/06/27 14:33:42;;;;;;;2.75;0.82;;;;;;;;;;4905734;29;20047;-57
2021/06/27 14:36:09;;;;;;;2.72;0.80;;;;;;;;;;4908405;29;20051;-56
2021/06/27 14:38:35;;;;;;;2.53;0.85;;;;;;;;;;4905925;29;20512;-58
2021/06/27 14:41:03;;;;;;;4.50;1.05;;;;;;;;;;4908852;29;20044;-53
2021/06/27 14:43:29;;;;;;;3.40;0.80;;;;;;;;;;4905691;29;20060;-56
2021/06/27 14:45:55;;;;;;;5.60;1.73;;;;;;;;;;4905232;29;20957;-58